Terminal Aerodrome Forecast
Issued by NWS

Home | Current Version | Previous Version | Text Only | Print | Product List | Glossary On
Versions: 1 2 3 4 5 6 7 8 9 10 11 12 13 14 15 16 17 18 19
000
FTUS44 KLZK 281700
TAFPBF
TAF
KPBF 281730Z 2818/2918 12013KT P6SM OVC100
     FM290000 09005KT P6SM BKN250
     FM291200 14006KT P6SM SCT030 BKN250
     FM291500 18011KT P6SM BKN250=

USA.gov is the U.S. government's official web portal to all federal, state and local government web resources and services.